^^
Grace C. Lehan Memorial Weather Station Historical Data
Daily Summary for July 26, 2021 Units:  Both    English   Metric
Daily Weekly Monthly Yearly
  High: Low: Average:
Temperature: 60 °F /  15.6 °C 49.6 °F /  9.8 °C 53.8 °F /  12.1 °C
Dew Point: 59.2 °F /  15.1 °C 48.6 °F /  9.2 °C 52.9 °F /  11.6 °C
Humidity: 99.5% 96% 97%
Wind Speed: 3.5mph /  5.6km/h - 0.8mph /  1.3km/h
Wind Gust: 16mph /  25.7km/h - -
Wind- - SE
Pressure: 29.82 in /  1009.7 hPa 29.40 in /  995.5 hPa -
Precipitation: 2.02 in /  51.31 mm    
 
 
Tabular Data for July 26, 2021
Time Temperature Dew Point Pressure Wind Wind Speed Wind Gust Humidity Rainfall Rate (Hourly) solar
00:00 50.4 °F /  10.2 °C 49.3 °F /  9.6 °C 29.82in /  1009.7hPa NW 3mph /  4.8km/h 10mph /  16.1km/h 96% 0.02in /  0.51mm 0 W/m2
00:09 50.3 °F /  10.2 °C 49.2 °F /  9.6 °C 29.82in /  1009.7hPa North 0.8mph /  1.3km/h 3mph /  4.8km/h 96% 0.02in /  0.51mm 0 W/m2
00:14 50.3 °F /  10.2 °C 49.2 °F /  9.6 °C 29.82in /  1009.7hPa North 0.6mph /  1km/h 5mph /  8km/h 96% 0.02in /  0.51mm 0 W/m2
00:19 50.2 °F /  10.1 °C 49.1 °F /  9.5 °C 29.82in /  1009.7hPa North 0.4mph /  0.6km/h 6mph /  9.7km/h 96% 0.02in /  0.51mm 0 W/m2
00:24 50.1 °F /  10.1 °C 49 °F /  9.4 °C 29.82in /  1009.7hPa NW 0.1mph /  0.2km/h 6mph /  9.7km/h 96% 0.02in /  0.51mm 0 W/m2
00:29 50.1 °F /  10.1 °C 49 °F /  9.4 °C 29.82in /  1009.7hPa North 0.6mph /  1km/h 9mph /  14.5km/h 96% 0.02in /  0.51mm 0 W/m2
00:34 50.1 °F /  10.1 °C 49 °F /  9.4 °C 29.82in /  1009.7hPa Calm   9mph /  14.5km/h 96% 0.02in /  0.51mm 0 W/m2
00:39 50.1 °F /  10.1 °C 49 °F /  9.4 °C 29.82in /  1009.7hPa SSE 0.1mph /  0.2km/h 2mph /  3.2km/h 96% 0.02in /  0.51mm 0 W/m2
00:44 50 °F /  10 °C 48.9 °F /  9.4 °C 29.82in /  1009.7hPa NE 0.3mph /  0.5km/h 2mph /  3.2km/h 96% 0.03in /  0.76mm 0 W/m2
00:49 50 °F /  10 °C 48.9 °F /  9.4 °C 29.81in /  1009.4hPa East 1mph /  1.6km/h 5mph /  8km/h 96% 0.03in /  0.76mm 0 W/m2
00:54 50 °F /  10 °C 48.9 °F /  9.4 °C 29.80in /  1009hPa NE 1.3mph /  2.1km/h 10mph /  16.1km/h 96% 0.03in /  0.76mm 0 W/m2
00:59 50 °F /  10 °C 48.9 °F /  9.4 °C 29.81in /  1009.4hPa NE 0.5mph /  0.8km/h 10mph /  16.1km/h 96% 0.03in /  0.76mm 0 W/m2
01:04 49.9 °F /  9.9 °C 48.9 °F /  9.4 °C 29.81in /  1009.4hPa NE 0.2mph /  0.3km/h 10mph /  16.1km/h 96% 0.03in /  0.76mm 0 W/m2
01:09 50 °F /  10 °C 48.9 °F /  9.4 °C 29.81in /  1009.4hPa NW 0.3mph /  0.5km/h 3mph /  4.8km/h 96% 0.03in /  0.76mm 0 W/m2
01:14 50.1 °F /  10.1 °C 49 °F /  9.4 °C 29.81in /  1009.4hPa North 0.5mph /  0.8km/h 6mph /  9.7km/h 96% 0.03in /  0.76mm 0 W/m2
01:19 50.1 °F /  10.1 °C 49 °F /  9.4 °C 29.80in /  1009hPa North 0.1mph /  0.2km/h 6mph /  9.7km/h 96% 0.03in /  0.76mm 0 W/m2
01:24 50.1 °F /  10.1 °C 49 °F /  9.4 °C 29.79in /  1008.7hPa Calm   6mph /  9.7km/h 96% 0.04in /  1.02mm 0 W/m2
01:29 50.1 °F /  10.1 °C 49 °F /  9.4 °C 29.79in /  1008.7hPa NNE 0.1mph /  0.2km/h 6mph /  9.7km/h 96% 0.05in /  1.27mm 0 W/m2
01:34 50 °F /  10 °C 48.9 °F /  9.4 °C 29.78in /  1008.4hPa NNE 0.2mph /  0.3km/h 6mph /  9.7km/h 96% 0.06in /  1.52mm 0 W/m2
01:39 50 °F /  10 °C 48.9 °F /  9.4 °C 29.78in /  1008.4hPa NNW 0.2mph /  0.3km/h 5mph /  8km/h 96% 0.06in /  1.52mm 0 W/m2
01:44 50 °F /  10 °C 48.9 °F /  9.4 °C 29.77in /  1008hPa NW 0.3mph /  0.5km/h 5mph /  8km/h 96% 0.07in /  1.78mm 0 W/m2
01:49 49.9 °F /  9.9 °C 48.8 °F /  9.3 °C 29.77in /  1008hPa NE 0.5mph /  0.8km/h 5mph /  8km/h 96% 0.07in /  1.78mm 0 W/m2
01:54 49.9 °F /  9.9 °C 48.8 °F /  9.3 °C 29.77in /  1008hPa NNE 0.3mph /  0.5km/h 5mph /  8km/h 96% 0.10in /  2.54mm 0 W/m2
01:59 49.9 °F /  9.9 °C 48.8 °F /  9.3 °C 29.76in /  1007.7hPa East 0.1mph /  0.2km/h 5mph /  8km/h 96% 0.12in /  3.05mm 0 W/m2
02:04 49.8 °F /  9.9 °C 48.7 °F /  9.3 °C 29.75in /  1007.3hPa NE 0.3mph /  0.5km/h 5mph /  8km/h 96% 0.12in /  3.05mm 0 W/m2
02:09 49.8 °F /  9.9 °C 48.7 °F /  9.3 °C 29.75in /  1007.3hPa NNW 0.3mph /  0.5km/h 6mph /  9.7km/h 96% 0.13in /  3.3mm 0 W/m2
02:14 49.8 °F /  9.9 °C 48.7 °F /  9.3 °C 29.75in /  1007.3hPa ENE 0.2mph /  0.3km/h 6mph /  9.7km/h 96% 0.14in /  3.56mm 0 W/m2
02:19 49.8 °F /  9.9 °C 48.7 °F /  9.3 °C 29.75in /  1007.3hPa North 0.7mph /  1.1km/h 6mph /  9.7km/h 96% 0.14in /  3.56mm 0 W/m2
02:24 49.8 °F /  9.9 °C 48.7 °F /  9.3 °C 29.75in /  1007.3hPa North 0.6mph /  1km/h 13mph /  20.9km/h 96% 0.15in /  3.81mm 0 W/m2
02:29 49.8 °F /  9.9 °C 48.7 °F /  9.3 °C 29.75in /  1007.3hPa NNW 0.4mph /  0.6km/h 13mph /  20.9km/h 96% 0.15in /  3.81mm 0 W/m2
02:34 49.8 °F /  9.9 °C 48.7 °F /  9.3 °C 29.74in /  1007hPa NW 0.7mph /  1.1km/h 13mph /  20.9km/h 96% 0.15in /  3.81mm 0 W/m2
02:39 49.8 °F /  9.9 °C 48.7 °F /  9.3 °C 29.73in /  1006.7hPa NNW 0.9mph /  1.4km/h 7mph /  11.3km/h 96% 0.14in /  3.56mm 0 W/m2
02:44 49.8 °F /  9.9 °C 48.7 °F /  9.3 °C 29.73in /  1006.7hPa North 0.9mph /  1.4km/h 11mph /  17.7km/h 96% 0.15in /  3.81mm 0 W/m2
02:49 49.8 °F /  9.9 °C 48.7 °F /  9.3 °C 29.72in /  1006.3hPa NNW 2mph /  3.2km/h 12mph /  19.3km/h 96% 0.17in /  4.32mm 0 W/m2
02:54 49.7 °F /  9.8 °C 48.6 °F /  9.2 °C 29.72in /  1006.3hPa NE 1.3mph /  2.1km/h 12mph /  19.3km/h 96% 0.18in /  4.57mm 0 W/m2
02:59 49.7 °F /  9.8 °C 48.6 °F /  9.2 °C 29.72in /  1006.3hPa ENE 0.3mph /  0.5km/h 12mph /  19.3km/h 96% 0.20in /  5.08mm 0 W/m2
03:04 49.6 °F /  9.8 °C 48.6 °F /  9.2 °C 29.72in /  1006.3hPa NNW 0.5mph /  0.8km/h 12mph /  19.3km/h 96% 0.20in /  5.08mm 0 W/m2
03:09 49.7 °F /  9.8 °C 48.6 °F /  9.2 °C 29.71in /  1006hPa NNW 0.5mph /  0.8km/h 4mph /  6.4km/h 96% 0.19in /  4.83mm 0 W/m2
03:14 49.7 °F /  9.8 °C 48.6 °F /  9.2 °C 29.71in /  1006hPa North 0.7mph /  1.1km/h 7mph /  11.3km/h 96% 0.22in /  5.59mm 0 W/m2
03:19 49.7 °F /  9.8 °C 48.6 °F /  9.2 °C 29.71in /  1006hPa ENE 0.5mph /  0.8km/h 7mph /  11.3km/h 96% 0.27in /  6.86mm 0 W/m2
03:24 49.7 °F /  9.8 °C 48.6 °F /  9.2 °C 29.70in /  1005.6hPa ENE 0.5mph /  0.8km/h 7mph /  11.3km/h 96% 0.31in /  7.87mm 0 W/m2
03:29 49.7 °F /  9.8 °C 48.6 °F /  9.2 °C 29.70in /  1005.6hPa NE 0.2mph /  0.3km/h 7mph /  11.3km/h 96% 0.35in /  8.89mm 0 W/m2
03:34 49.8 °F /  9.9 °C 48.7 °F /  9.3 °C 29.69in /  1005.3hPa North 0.6mph /  1km/h 9mph /  14.5km/h 96% 0.35in /  8.89mm 0 W/m2
03:39 49.8 °F /  9.9 °C 48.7 °F /  9.3 °C 29.69in /  1005.3hPa North 0.1mph /  0.2km/h 5mph /  8km/h 96% 0.35in /  8.89mm 0 W/m2
03:44 49.9 °F /  9.9 °C 48.8 °F /  9.3 °C 29.69in /  1005.3hPa North 0.6mph /  1km/h 6mph /  9.7km/h 96% 0.35in /  8.89mm 0 W/m2
03:49 49.9 °F /  9.9 °C 48.8 °F /  9.3 °C 29.69in /  1005.3hPa North 0.6mph /  1km/h 6mph /  9.7km/h 96% 0.40in /  10.16mm 0 W/m2
03:54 49.9 °F /  9.9 °C 48.8 °F /  9.3 °C 29.69in /  1005.3hPa North 0.1mph /  0.2km/h 6mph /  9.7km/h 96% 0.40in /  10.16mm 0 W/m2
03:59 49.9 °F /  9.9 °C 48.8 °F /  9.3 °C 29.68in /  1005hPa NNW 0.1mph /  0.2km/h 6mph /  9.7km/h 96% 0.41in /  10.41mm 0 W/m2
04:00 49.9 °F /  9.9 °C 48.8 °F /  9.3 °C 29.67in /  1004.6hPa Calm   6mph /  9.7km/h 96% 0.41in /  10.41mm 0 W/m2
04:09 49.9 °F /  9.9 °C 48.8 °F /  9.3 °C 29.68in /  1005hPa NE 0.3mph /  0.5km/h 5mph /  8km/h 96% 0.35in /  8.89mm 0 W/m2
04:14 49.9 °F /  9.9 °C 48.8 °F /  9.3 °C 29.67in /  1004.6hPa ENE 1.1mph /  1.8km/h 11mph /  17.7km/h 96% 0.42in /  10.67mm 0 W/m2
04:19 49.9 °F /  9.9 °C 48.8 °F /  9.3 °C 29.67in /  1004.6hPa East 0.5mph /  0.8km/h 11mph /  17.7km/h 96% 0.43in /  10.92mm 0 W/m2
04:24 49.9 °F /  9.9 °C 48.8 °F /  9.3 °C 29.67in /  1004.6hPa ENE 0.3mph /  0.5km/h 11mph /  17.7km/h 96% 0.43in /  10.92mm 0 W/m2
04:29 49.9 °F /  9.9 °C 48.8 °F /  9.3 °C 29.67in /  1004.6hPa NW 0.2mph /  0.3km/h 11mph /  17.7km/h 96% 0.44in /  11.18mm 0 W/m2
04:34 49.9 °F /  9.9 °C 48.8 °F /  9.3 °C 29.67in /  1004.6hPa North 0.2mph /  0.3km/h 11mph /  17.7km/h 96% 0.44in /  11.18mm 0 W/m2
04:39 50 °F /  10 °C 48.9 °F /  9.4 °C 29.67in /  1004.6hPa NE 0.1mph /  0.2km/h 2mph /  3.2km/h 96% 0.22in /  5.59mm 0 W/m2
04:44 50 °F /  10 °C 49.9 °F /  9.9 °C 29.67in /  1004.6hPa NNE 0.1mph /  0.2km/h 2mph /  3.2km/h 99.5% 0.22in /  5.59mm 0 W/m2
04:49 50 °F /  10 °C 49.3 °F /  9.6 °C 29.67in /  1004.6hPa NNE 0.6mph /  1km/h 6mph /  9.7km/h 97.5% 0.22in /  5.59mm 0 W/m2
04:54 50 °F /  10 °C 49.6 °F /  9.8 °C 29.66in /  1004.3hPa WNW 0.4mph /  0.6km/h 6mph /  9.7km/h 98.4% 0.22in /  5.59mm 0 W/m2
04:59 50 °F /  10 °C 49.5 °F /  9.7 °C 29.66in /  1004.3hPa North 0.7mph /  1.1km/h 11mph /  17.7km/h 98.2% 0.22in /  5.59mm 0 W/m2
05:04 50 °F /  10 °C 48.9 °F /  9.4 °C 29.66in /  1004.3hPa North 0.5mph /  0.8km/h 11mph /  17.7km/h 96% 0.22in /  5.59mm 0 W/m2
05:09 49.9 °F /  9.9 °C 48.8 °F /  9.3 °C 29.65in /  1003.9hPa NNW 1.2mph /  1.9km/h 10mph /  16.1km/h 96% 0.12in /  3.05mm 0 W/m2
05:14 49.9 °F /  9.9 °C 48.8 °F /  9.3 °C 29.65in /  1003.9hPa North 0.6mph /  1km/h 10mph /  16.1km/h 96% 0.12in /  3.05mm 0 W/m2
05:19 49.9 °F /  9.9 °C 48.8 °F /  9.3 °C 29.65in /  1003.9hPa North 0.4mph /  0.6km/h 10mph /  16.1km/h 96% 0.12in /  3.05mm 0 W/m2
05:24 49.9 °F /  9.9 °C 48.8 °F /  9.3 °C 29.64in /  1003.6hPa NNE 0.5mph /  0.8km/h 10mph /  16.1km/h 96% 0.12in /  3.05mm 0 W/m2
05:29 49.9 °F /  9.9 °C 48.8 °F /  9.3 °C 29.64in /  1003.6hPa North 0.5mph /  0.8km/h 11mph /  17.7km/h 96% 0.13in /  3.3mm 0 W/m2
05:34 49.9 °F /  9.9 °C 48.8 °F /  9.3 °C 29.64in /  1003.6hPa North 0.3mph /  0.5km/h 11mph /  17.7km/h 96% 0.13in /  3.3mm 0 W/m2
05:39 49.9 °F /  9.9 °C 48.8 °F /  9.3 °C 29.63in /  1003.3hPa NNE 0.3mph /  0.5km/h 6mph /  9.7km/h 96% 0.01in /  0.25mm 0 W/m2
05:44 49.9 °F /  9.9 °C 48.9 °F /  9.4 °C 29.62in /  1002.9hPa NNW 0.5mph /  0.8km/h 9mph /  14.5km/h 96.1% 0.02in /  0.51mm 0 W/m2
05:49 50 °F /  10 °C 49.1 °F /  9.5 °C 29.63in /  1003.3hPa NNE 0.7mph /  1.1km/h 9mph /  14.5km/h 96.7% 0.02in /  0.51mm 0 W/m2
05:54 50 °F /  10 °C 49.7 °F /  9.8 °C 29.62in /  1002.9hPa NNW 0.3mph /  0.5km/h 9mph /  14.5km/h 99% 0.02in /  0.51mm 0 W/m2
05:59 50.1 °F /  10.1 °C 49.3 °F /  9.6 °C 29.62in /  1002.9hPa NW 0.3mph /  0.5km/h 9mph /  14.5km/h 97% 0.02in /  0.51mm 0 W/m2
06:04 50.2 °F /  10.1 °C 49.3 °F /  9.6 °C 29.61in /  1002.6hPa NNW 1.1mph /  1.8km/h 14mph /  22.5km/h 97% 0.02in /  0.51mm 0 W/m2
06:09 50.3 °F /  10.2 °C 49.4 °F /  9.7 °C 29.61in /  1002.6hPa NW 0.8mph /  1.3km/h 14mph /  22.5km/h 97% 0.02in /  0.51mm 0 W/m2
06:14 50.3 °F /  10.2 °C 49.5 °F /  9.7 °C 29.61in /  1002.6hPa NW 0.3mph /  0.5km/h 14mph /  22.5km/h 97% 0.02in /  0.51mm 0 W/m2
06:19 50.4 °F /  10.2 °C 49.6 °F /  9.8 °C 29.61in /  1002.6hPa NNE 0.2mph /  0.3km/h 14mph /  22.5km/h 97% 0.03in /  0.76mm 0 W/m2
06:24 50.4 °F /  10.2 °C 49.6 °F /  9.8 °C 29.60in /  1002.3hPa North 0.7mph /  1.1km/h 14mph /  22.5km/h 97% 0.04in /  1.02mm 0 W/m2
06:29 50.5 °F /  10.3 °C 49.7 °F /  9.8 °C 29.60in /  1002.3hPa NNW 0.8mph /  1.3km/h 14mph /  22.5km/h 97% 0.04in /  1.02mm 0 W/m2
06:34 50.5 °F /  10.3 °C 49.7 °F /  9.8 °C 29.60in /  1002.3hPa NNW 0.6mph /  1km/h 14mph /  22.5km/h 97% 0.04in /  1.02mm 0 W/m2
06:39 50.6 °F /  10.3 °C 49.8 °F /  9.9 °C 29.60in /  1002.3hPa NNW 1mph /  1.6km/h 9mph /  14.5km/h 97% 0.05in /  1.27mm 0 W/m2
06:44 50.7 °F /  10.4 °C 49.8 °F /  9.9 °C 29.60in /  1002.3hPa NNW 0.2mph /  0.3km/h 9mph /  14.5km/h 97% 0.05in /  1.27mm 0 W/m2
06:49 50.7 °F /  10.4 °C 49.9 °F /  9.9 °C 29.60in /  1002.3hPa NNW 1.5mph /  2.4km/h 9mph /  14.5km/h 97% 0.05in /  1.27mm 0 W/m2
06:54 50.8 °F /  10.4 °C 50 °F /  10 °C 29.60in /  1002.3hPa NNW 1mph /  1.6km/h 9mph /  14.5km/h 97% 0.07in /  1.78mm 0 W/m2
06:59 50.8 °F /  10.4 °C 50 °F /  10 °C 29.60in /  1002.3hPa NNE 0.5mph /  0.8km/h 9mph /  14.5km/h 97% 0.07in /  1.78mm 0 W/m2
07:04 50.9 °F /  10.5 °C 50.1 °F /  10.1 °C 29.60in /  1002.3hPa NNW 0.8mph /  1.3km/h 12mph /  19.3km/h 97% 0.07in /  1.78mm 0 W/m2
07:09 51 °F /  10.6 °C 50.1 °F /  10.1 °C 29.60in /  1002.3hPa NW 0.7mph /  1.1km/h 12mph /  19.3km/h 97% 0.06in /  1.52mm 0 W/m2
07:14 51 °F /  10.6 °C 50.2 °F /  10.1 °C 29.59in /  1001.9hPa NNW 0.5mph /  0.8km/h 12mph /  19.3km/h 97% 0.06in /  1.52mm 0 W/m2
07:19 51.1 °F /  10.6 °C 50.3 °F /  10.2 °C 29.59in /  1001.9hPa NNW 0.8mph /  1.3km/h 12mph /  19.3km/h 97% 0.06in /  1.52mm 0 W/m2
07:24 51.2 °F /  10.7 °C 50.3 °F /  10.2 °C 29.59in /  1001.9hPa NW 0.4mph /  0.6km/h 12mph /  19.3km/h 97% 0.07in /  1.78mm 0 W/m2
07:29 51.2 °F /  10.7 °C 50.4 °F /  10.2 °C 29.58in /  1001.6hPa NNW 0.5mph /  0.8km/h 12mph /  19.3km/h 97% 0.08in /  2.03mm 0 W/m2
07:34 51.2 °F /  10.7 °C 50.4 °F /  10.2 °C 29.58in /  1001.6hPa North 0.6mph /  1km/h 12mph /  19.3km/h 97% 0.08in /  2.03mm 0 W/m2
07:39 51.3 °F /  10.7 °C 50.5 °F /  10.3 °C 29.58in /  1001.6hPa NW 0.5mph /  0.8km/h 6mph /  9.7km/h 97% 0.07in /  1.78mm 0 W/m2
07:44 51.4 °F /  10.8 °C 50.6 °F /  10.3 °C 29.58in /  1001.6hPa North 0.2mph /  0.3km/h 6mph /  9.7km/h 97% 0.08in /  2.03mm 0 W/m2
07:49 51.4 °F /  10.8 °C 50.6 °F /  10.3 °C 29.58in /  1001.6hPa Calm   6mph /  9.7km/h 97% 0.09in /  2.29mm 0 W/m2
07:54 51.5 °F /  10.8 °C 50.7 °F /  10.4 °C 29.58in /  1001.6hPa NNE 0.8mph /  1.3km/h 6mph /  9.7km/h 97% 0.10in /  2.54mm 5 W/m2
07:59 51.6 °F /  10.9 °C 50.8 °F /  10.4 °C 29.58in /  1001.6hPa North 0.9mph /  1.4km/h 9mph /  14.5km/h 97% 0.10in /  2.54mm 5 W/m2
08:00 51.7 °F /  10.9 °C 50.9 °F /  10.5 °C 29.57in /  1001.2hPa Calm   9mph /  14.5km/h 97% 0.10in /  2.54mm 0 W/m2
08:09 51.8 °F /  11 °C 51 °F /  10.6 °C 29.58in /  1001.6hPa NE 0.5mph /  0.8km/h 5mph /  8km/h 97% 0.14in /  3.56mm 11 W/m2
08:14 51.9 °F /  11.1 °C 51.1 °F /  10.6 °C 29.57in /  1001.2hPa NNW 0.5mph /  0.8km/h 6mph /  9.7km/h 97% 0.14in /  3.56mm 9 W/m2
08:19 52 °F /  11.1 °C 51.2 °F /  10.7 °C 29.57in /  1001.2hPa NNE 0.4mph /  0.6km/h 6mph /  9.7km/h 97% 0.14in /  3.56mm 5 W/m2
08:24 52.1 °F /  11.2 °C 51.3 °F /  10.7 °C 29.57in /  1001.2hPa NE 0.5mph /  0.8km/h 6mph /  9.7km/h 97% 0.14in /  3.56mm 7 W/m2
08:29 52.2 °F /  11.2 °C 51.4 °F /  10.8 °C 29.57in /  1001.2hPa East 0.1mph /  0.2km/h 6mph /  9.7km/h 97% 0.15in /  3.81mm 9 W/m2
08:34 52.2 °F /  11.2 °C 51.4 °F /  10.8 °C 29.57in /  1001.2hPa ENE 1.4mph /  2.3km/h 6mph /  9.7km/h 97% 0.15in /  3.81mm 9 W/m2
08:39 52.3 °F /  11.3 °C 51.5 °F /  10.8 °C 29.57in /  1001.2hPa NE 0.8mph /  1.3km/h 6mph /  9.7km/h 97% 0.09in /  2.29mm 11 W/m2
08:44 52.3 °F /  11.3 °C 51.5 °F /  10.8 °C 29.56in /  1000.9hPa ENE 1.1mph /  1.8km/h 6mph /  9.7km/h 97% 0.10in /  2.54mm 11 W/m2
08:49 52.4 °F /  11.3 °C 51.6 °F /  10.9 °C 29.56in /  1000.9hPa ENE 2mph /  3.2km/h 12mph /  19.3km/h 97% 0.10in /  2.54mm 12 W/m2
08:54 52.5 °F /  11.4 °C 51.7 °F /  10.9 °C 29.56in /  1000.9hPa ENE 1.6mph /  2.6km/h 12mph /  19.3km/h 97% 0.10in /  2.54mm 21 W/m2
08:59 52.6 °F /  11.4 °C 51.7 °F /  10.9 °C 29.56in /  1000.9hPa NE 0.7mph /  1.1km/h 12mph /  19.3km/h 97% 0.10in /  2.54mm 26 W/m2
09:04 52.7 °F /  11.5 °C 51.9 °F /  11.1 °C 29.55in /  1000.6hPa ENE 0.9mph /  1.4km/h 12mph /  19.3km/h 97% 0.10in /  2.54mm 18 W/m2
09:09 52.7 °F /  11.5 °C 51.9 °F /  11.1 °C 29.55in /  1000.6hPa NE 0.5mph /  0.8km/h 6mph /  9.7km/h 97% 0.01in /  0.25mm 16 W/m2
09:14 52.8 °F /  11.6 °C 52 °F /  11.1 °C 29.55in /  1000.6hPa North 1.8mph /  2.9km/h 13mph /  20.9km/h 97% 0.01in /  0.25mm 12 W/m2
09:19 52.9 °F /  11.6 °C 52.1 °F /  11.2 °C 29.55in /  1000.6hPa ENE 1mph /  1.6km/h 13mph /  20.9km/h 97% 0.01in /  0.25mm 12 W/m2
09:24 52.9 °F /  11.6 °C 52.1 °F /  11.2 °C 29.54in /  1000.2hPa ENE 0.9mph /  1.4km/h 13mph /  20.9km/h 97% 0.02in /  0.51mm 12 W/m2
09:29 52.9 °F /  11.6 °C 52.1 °F /  11.2 °C 29.54in /  1000.2hPa NNE 0.6mph /  1km/h 13mph /  20.9km/h 97% 0.02in /  0.51mm 18 W/m2
09:34 52.9 °F /  11.6 °C 52.1 °F /  11.2 °C 29.53in /  999.9hPa ENE 0.2mph /  0.3km/h 13mph /  20.9km/h 97% 0.02in /  0.51mm 19 W/m2
09:39 52.9 °F /  11.6 °C 52.1 °F /  11.2 °C 29.53in /  999.9hPa NNE 0.7mph /  1.1km/h 9mph /  14.5km/h 97% 0.03in /  0.76mm 21 W/m2
09:44 52.9 °F /  11.6 °C 52.1 °F /  11.2 °C 29.53in /  999.9hPa NE 0.4mph /  0.6km/h 9mph /  14.5km/h 97% 0.04in /  1.02mm 25 W/m2
09:49 53 °F /  11.7 °C 52.2 °F /  11.2 °C 29.52in /  999.5hPa NE 0.1mph /  0.2km/h 9mph /  14.5km/h 97% 0.04in /  1.02mm 25 W/m2
09:54 53 °F /  11.7 °C 52.2 °F /  11.2 °C 29.52in /  999.5hPa NNE 0.5mph /  0.8km/h 9mph /  14.5km/h 97% 0.05in /  1.27mm 46 W/m2
09:59 53.1 °F /  11.7 °C 52.2 °F /  11.2 °C 29.51in /  999.2hPa ENE 0.4mph /  0.6km/h 9mph /  14.5km/h 97% 0.05in /  1.27mm 35 W/m2
10:04 53.1 °F /  11.7 °C 52.3 °F /  11.3 °C 29.51in /  999.2hPa NE 0.7mph /  1.1km/h 9mph /  14.5km/h 97% 0.05in /  1.27mm 23 W/m2
10:09 53.2 °F /  11.8 °C 52.4 °F /  11.3 °C 29.50in /  998.9hPa ENE 0.3mph /  0.5km/h 5mph /  8km/h 97% 0.05in /  1.27mm 40 W/m2
10:14 53.3 °F /  11.8 °C 52.5 °F /  11.4 °C 29.50in /  998.9hPa North 0.9mph /  1.4km/h 6mph /  9.7km/h 97% 0.05in /  1.27mm 47 W/m2
10:19 53.4 °F /  11.9 °C 52.6 °F /  11.4 °C 29.50in /  998.9hPa North 0.7mph /  1.1km/h 6mph /  9.7km/h 97% 0.05in /  1.27mm 44 W/m2
10:24 53.5 °F /  11.9 °C 52.7 °F /  11.5 °C 29.49in /  998.5hPa ENE 1.3mph /  2.1km/h 11mph /  17.7km/h 97% 0.05in /  1.27mm 60 W/m2
10:29 53.5 °F /  11.9 °C 52.7 °F /  11.5 °C 29.49in /  998.5hPa NE 1mph /  1.6km/h 11mph /  17.7km/h 97% 0.05in /  1.27mm 40 W/m2
10:34 53.5 °F /  11.9 °C 52.7 °F /  11.5 °C 29.49in /  998.5hPa NE 1.6mph /  2.6km/h 14mph /  22.5km/h 97% 0.05in /  1.27mm 47 W/m2
10:39 53.6 °F /  12 °C 52.8 °F /  11.6 °C 29.49in /  998.5hPa ENE 2.4mph /  3.9km/h 14mph /  22.5km/h 97% 0.04in /  1.02mm 39 W/m2
10:44 53.7 °F /  12.1 °C 52.9 °F /  11.6 °C 29.48in /  998.2hPa ENE 0.9mph /  1.4km/h 14mph /  22.5km/h 97% 0.04in /  1.02mm 32 W/m2
10:49 53.7 °F /  12.1 °C 52.9 °F /  11.6 °C 29.48in /  998.2hPa NE 1.3mph /  2.1km/h 14mph /  22.5km/h 97% 0.05in /  1.27mm 35 W/m2
10:54 53.8 °F /  12.1 °C 52.9 °F /  11.6 °C 29.48in /  998.2hPa ENE 2.4mph /  3.9km/h 14mph /  22.5km/h 97% 0.05in /  1.27mm 44 W/m2
10:59 53.9 °F /  12.2 °C 53 °F /  11.7 °C 29.48in /  998.2hPa NE 0.4mph /  0.6km/h 14mph /  22.5km/h 97% 0.05in /  1.27mm 39 W/m2
11:04 53.9 °F /  12.2 °C 53.1 °F /  11.7 °C 29.48in /  998.2hPa NE 0.5mph /  0.8km/h 14mph /  22.5km/h 97% 0.05in /  1.27mm 37 W/m2
11:09 54 °F /  12.2 °C 53.2 °F /  11.8 °C 29.48in /  998.2hPa ENE 0.5mph /  0.8km/h 5mph /  8km/h 97% 0.04in /  1.02mm 23 W/m2
11:14 54 °F /  12.2 °C 53.2 °F /  11.8 °C 29.48in /  998.2hPa ENE 1.1mph /  1.8km/h 6mph /  9.7km/h 97% 0.06in /  1.52mm 33 W/m2
11:19 54 °F /  12.2 °C 53.2 °F /  11.8 °C 29.48in /  998.2hPa ENE 0.8mph /  1.3km/h 6mph /  9.7km/h 97% 0.09in /  2.29mm 37 W/m2
11:24 54 °F /  12.2 °C 53.2 °F /  11.8 °C 29.48in /  998.2hPa ENE 0.8mph /  1.3km/h 6mph /  9.7km/h 97% 0.12in /  3.05mm 35 W/m2
11:29 54.1 °F /  12.3 °C 53.2 °F /  11.8 °C 29.48in /  998.2hPa NE 0.5mph /  0.8km/h 6mph /  9.7km/h 97% 0.15in /  3.81mm 65 W/m2
11:34 54.1 °F /  12.3 °C 53.3 °F /  11.8 °C 29.46in /  997.5hPa ENE 0.9mph /  1.4km/h 7mph /  11.3km/h 97% 0.15in /  3.81mm 65 W/m2
11:39 54.1 °F /  12.3 °C 53.3 °F /  11.8 °C 29.46in /  997.5hPa NE 1.6mph /  2.6km/h 9mph /  14.5km/h 97% 0.16in /  4.06mm 46 W/m2
11:44 54.2 °F /  12.3 °C 53.4 °F /  11.9 °C 29.46in /  997.5hPa NE 1.4mph /  2.3km/h 9mph /  14.5km/h 97% 0.18in /  4.57mm 46 W/m2
11:49 54.3 °F /  12.4 °C 53.4 °F /  11.9 °C 29.46in /  997.5hPa ENE 1.7mph /  2.7km/h 10mph /  16.1km/h 97% 0.21in /  5.33mm 39 W/m2
11:54 54.4 °F /  12.4 °C 53.6 °F /  12 °C 29.46in /  997.5hPa ENE 2.6mph /  4.2km/h 11mph /  17.7km/h 97% 0.24in /  6.1mm 44 W/m2
11:59 54.6 °F /  12.6 °C 53.7 °F /  12.1 °C 29.46in /  997.5hPa ENE 1.2mph /  1.9km/h 11mph /  17.7km/h 97% 0.28in /  7.11mm 42 W/m2
12:09 54.8 °F /  12.7 °C 53.9 °F /  12.2 °C 29.46in /  997.5hPa ENE 0.6mph /  1km/h 3mph /  4.8km/h 97% 0.35in /  8.89mm 42 W/m2
12:14 54.8 °F /  12.7 °C 54 °F /  12.2 °C 29.45in /  997.2hPa ENE 0.3mph /  0.5km/h 3mph /  4.8km/h 97% 0.38in /  9.65mm 47 W/m2
12:19 55 °F /  12.8 °C 54.1 °F /  12.3 °C 29.45in /  997.2hPa ENE 0.2mph /  0.3km/h 3mph /  4.8km/h 97% 0.42in /  10.67mm 47 W/m2
12:24 55.1 °F /  12.8 °C 54.3 °F /  12.4 °C 29.45in /  997.2hPa Calm   3mph /  4.8km/h 97% 0.45in /  11.43mm 39 W/m2
12:29 55.1 °F /  12.8 °C 54.3 °F /  12.4 °C 29.45in /  997.2hPa NE 0.3mph /  0.5km/h 3mph /  4.8km/h 97% 0.51in /  12.95mm 35 W/m2
12:34 55.2 °F /  12.9 °C 54.4 °F /  12.4 °C 29.44in /  996.8hPa ENE 0.1mph /  0.2km/h 3mph /  4.8km/h 97% 0.51in /  12.95mm 42 W/m2
12:39 55.3 °F /  12.9 °C 54.5 °F /  12.5 °C 29.44in /  996.8hPa NNE 0.7mph /  1.1km/h 6mph /  9.7km/h 97% 0.46in /  11.68mm 30 W/m2
12:44 55.3 °F /  12.9 °C 54.5 °F /  12.5 °C 29.44in /  996.8hPa Calm   6mph /  9.7km/h 97% 0.48in /  12.19mm 26 W/m2
12:49 55.4 °F /  13 °C 54.6 °F /  12.6 °C 29.44in /  996.8hPa NE 0.1mph /  0.2km/h 6mph /  9.7km/h 97% 0.49in /  12.45mm 26 W/m2
12:54 55.4 °F /  13 °C 54.6 °F /  12.6 °C 29.43in /  996.5hPa ENE 0.1mph /  0.2km/h 6mph /  9.7km/h 97% 0.51in /  12.95mm 42 W/m2
12:59 55.5 °F /  13.1 °C 54.7 °F /  12.6 °C 29.43in /  996.5hPa ENE 0.1mph /  0.2km/h 6mph /  9.7km/h 97% 0.52in /  13.21mm 42 W/m2
13:04 55.6 °F /  13.1 °C 54.7 °F /  12.6 °C 29.43in /  996.5hPa ENE 0.6mph /  1km/h 6mph /  9.7km/h 97% 0.52in /  13.21mm 47 W/m2
13:09 55.8 °F /  13.2 °C 54.9 °F /  12.7 °C 29.43in /  996.5hPa ENE 0.7mph /  1.1km/h 5mph /  8km/h 97% 0.16in /  4.06mm 47 W/m2
13:14 55.9 °F /  13.3 °C 55.1 °F /  12.8 °C 29.43in /  996.5hPa ENE 0.4mph /  0.6km/h 5mph /  8km/h 97% 0.16in /  4.06mm 37 W/m2
13:19 56.1 °F /  13.4 °C 55.3 °F /  12.9 °C 29.42in /  996.2hPa ENE 0.1mph /  0.2km/h 5mph /  8km/h 97% 0.17in /  4.32mm 49 W/m2
13:24 56.4 °F /  13.6 °C 55.5 °F /  13.1 °C 29.42in /  996.2hPa ENE 0.7mph /  1.1km/h 6mph /  9.7km/h 97% 0.18in /  4.57mm 46 W/m2
13:29 56.7 °F /  13.7 °C 55.8 °F /  13.2 °C 29.42in /  996.2hPa ENE 0.6mph /  1km/h 6mph /  9.7km/h 97% 0.20in /  5.08mm 51 W/m2
13:34 57 °F /  13.9 °C 56.2 °F /  13.4 °C 29.41in /  995.8hPa ENE 2.2mph /  3.5km/h 9mph /  14.5km/h 97% 0.21in /  5.33mm 67 W/m2
13:39 57.4 °F /  14.1 °C 56.5 °F /  13.6 °C 29.41in /  995.8hPa NE 2.6mph /  4.2km/h 13mph /  20.9km/h 97% 0.23in /  5.84mm 83 W/m2
13:44 57.7 °F /  14.3 °C 56.9 °F /  13.8 °C 29.41in /  995.8hPa ENE 1.2mph /  1.9km/h 13mph /  20.9km/h 97% 0.24in /  6.1mm 53 W/m2
13:49 58 °F /  14.4 °C 57.2 °F /  14 °C 29.41in /  995.8hPa NE 1.2mph /  1.9km/h 13mph /  20.9km/h 97% 0.25in /  6.35mm 37 W/m2
13:54 58.2 °F /  14.6 °C 57.3 °F /  14.1 °C 29.41in /  995.8hPa NE 0.1mph /  0.2km/h 13mph /  20.9km/h 97% 0.27in /  6.86mm 46 W/m2
13:59 58.2 °F /  14.6 °C 57.3 °F /  14.1 °C 29.41in /  995.8hPa ENE 0.5mph /  0.8km/h 13mph /  20.9km/h 97% 0.30in /  7.62mm 56 W/m2
14:04 58.1 °F /  14.5 °C 57.3 °F /  14.1 °C 29.41in /  995.8hPa ENE 0.1mph /  0.2km/h 13mph /  20.9km/h 97% 0.30in /  7.62mm 53 W/m2
14:09 58.2 °F /  14.6 °C 57.4 °F /  14.1 °C 29.41in /  995.8hPa ENE 0.5mph /  0.8km/h 4mph /  6.4km/h 97% 0.19in /  4.83mm 67 W/m2
14:14 58.4 °F /  14.7 °C 57.6 °F /  14.2 °C 29.40in /  995.5hPa ENE 1.5mph /  2.4km/h 6mph /  9.7km/h 97% 0.20in /  5.08mm 60 W/m2
14:19 58.7 °F /  14.8 °C 57.9 °F /  14.4 °C 29.40in /  995.5hPa ENE 2mph /  3.2km/h 11mph /  17.7km/h 97% 0.21in /  5.33mm 67 W/m2
14:24 59 °F /  15 °C 58.2 °F /  14.6 °C 29.40in /  995.5hPa ENE 1.4mph /  2.3km/h 11mph /  17.7km/h 97% 0.21in /  5.33mm 62 W/m2
14:29 59.3 °F /  15.2 °C 58.5 °F /  14.7 °C 29.40in /  995.5hPa ENE 1.2mph /  1.9km/h 11mph /  17.7km/h 97% 0.22in /  5.59mm 42 W/m2
14:34 59.5 °F /  15.3 °C 58.7 °F /  14.8 °C 29.41in /  995.8hPa ENE 3.5mph /  5.6km/h 11mph /  17.7km/h 97% 0.22in /  5.59mm 62 W/m2
14:39 59.8 °F /  15.4 °C 58.9 °F /  14.9 °C 29.41in /  995.8hPa ENE 3.2mph /  5.1km/h 11mph /  17.7km/h 97% 0.19in /  4.83mm 70 W/m2
14:44 59.9 °F /  15.5 °C 59 °F /  15 °C 29.41in /  995.8hPa East 1.2mph /  1.9km/h 11mph /  17.7km/h 97% 0.19in /  4.83mm 67 W/m2
14:49 59.9 °F /  15.5 °C 59.1 °F /  15.1 °C 29.41in /  995.8hPa ENE 1.8mph /  2.9km/h 11mph /  17.7km/h 97% 0.20in /  5.08mm 72 W/m2
14:54 59.9 °F /  15.5 °C 59.1 °F /  15.1 °C 29.41in /  995.8hPa East 2mph /  3.2km/h 11mph /  17.7km/h 97% 0.20in /  5.08mm 65 W/m2
14:59 59.9 °F /  15.5 °C 59.1 °F /  15.1 °C 29.41in /  995.8hPa East 2.2mph /  3.5km/h 11mph /  17.7km/h 97% 0.20in /  5.08mm 62 W/m2
15:04 59.9 °F /  15.5 °C 59.1 °F /  15.1 °C 29.41in /  995.8hPa ENE 0.8mph /  1.3km/h 11mph /  17.7km/h 97% 0.20in /  5.08mm 42 W/m2
15:09 59.9 °F /  15.5 °C 59 °F /  15 °C 29.41in /  995.8hPa ENE 1.1mph /  1.8km/h 6mph /  9.7km/h 97% 0.11in /  2.79mm 30 W/m2
15:14 59.8 °F /  15.4 °C 59 °F /  15 °C 29.42in /  996.2hPa ENE 0.9mph /  1.4km/h 7mph /  11.3km/h 97% 0.12in /  3.05mm 26 W/m2
15:19 59.8 °F /  15.4 °C 59 °F /  15 °C 29.42in /  996.2hPa ENE 2.3mph /  3.7km/h 11mph /  17.7km/h 97% 0.13in /  3.3mm 30 W/m2
15:24 59.9 °F /  15.5 °C 59 °F /  15 °C 29.42in /  996.2hPa ENE 3.1mph /  5km/h 11mph /  17.7km/h 97% 0.14in /  3.56mm 56 W/m2
15:29 59.9 °F /  15.5 °C 59.1 °F /  15.1 °C 29.42in /  996.2hPa ENE 1.8mph /  2.9km/h 11mph /  17.7km/h 97% 0.14in /  3.56mm 51 W/m2
15:34 60 °F /  15.6 °C 59.2 °F /  15.1 °C 29.42in /  996.2hPa ENE 0.9mph /  1.4km/h 11mph /  17.7km/h 97% 0.14in /  3.56mm 51 W/m2
15:39 60 °F /  15.6 °C 59.2 °F /  15.1 °C 29.42in /  996.2hPa ENE 0.3mph /  0.5km/h 6mph /  9.7km/h 97% 0.09in /  2.29mm 51 W/m2
15:44 60 °F /  15.6 °C 59.2 °F /  15.1 °C 29.41in /  995.8hPa NE 0.5mph /  0.8km/h 6mph /  9.7km/h 97% 0.09in /  2.29mm 28 W/m2
15:49 60 °F /  15.6 °C 59.2 °F /  15.1 °C 29.41in /  995.8hPa ENE 0.5mph /  0.8km/h 6mph /  9.7km/h 97% 0.10in /  2.54mm 18 W/m2
15:54 60 °F /  15.6 °C 59.2 °F /  15.1 °C 29.41in /  995.8hPa ENE 1.4mph /  2.3km/h 6mph /  9.7km/h 97% 0.10in /  2.54mm 23 W/m2
15:59 60 °F /  15.6 °C 59.2 °F /  15.1 °C 29.42in /  996.2hPa ENE 2.4mph /  3.9km/h 7mph /  11.3km/h 97% 0.10in /  2.54mm 30 W/m2
16:00 60 °F /  15.6 °C 59.2 °F /  15.1 °C 29.42in /  996.2hPa NE 3mph /  4.8km/h 7mph /  11.3km/h 97% 0.10in /  2.54mm 25 W/m2
16:09 60 °F /  15.6 °C 59.2 °F /  15.1 °C 29.42in /  996.2hPa ENE 2.1mph /  3.4km/h 10mph /  16.1km/h 97% 0.11in /  2.79mm 40 W/m2
16:14 60 °F /  15.6 °C 59.2 °F /  15.1 °C 29.42in /  996.2hPa ENE 1mph /  1.6km/h 10mph /  16.1km/h 97% 0.11in /  2.79mm 37 W/m2
16:19 60 °F /  15.6 °C 59.2 °F /  15.1 °C 29.42in /  996.2hPa ENE 0.2mph /  0.3km/h 10mph /  16.1km/h 97% 0.11in /  2.79mm 23 W/m2
16:24 60 °F /  15.6 °C 59.2 °F /  15.1 °C 29.42in /  996.2hPa ENE 1.1mph /  1.8km/h 10mph /  16.1km/h 97% 0.11in /  2.79mm 19 W/m2
16:29 60 °F /  15.6 °C 59.2 °F /  15.1 °C 29.42in /  996.2hPa East 0.5mph /  0.8km/h 10mph /  16.1km/h 97% 0.11in /  2.79mm 18 W/m2
16:34 60 °F /  15.6 °C 59.1 °F /  15.1 °C 29.42in /  996.2hPa ENE 0.7mph /  1.1km/h 10mph /  16.1km/h 97% 0.11in /  2.79mm 12 W/m2
16:39 59.9 °F /  15.5 °C 59.1 °F /  15.1 °C 29.42in /  996.2hPa ENE 0.9mph /  1.4km/h 4mph /  6.4km/h 97% 0.04in /  1.02mm 12 W/m2
16:44 59.9 °F /  15.5 °C 59.1 °F /  15.1 °C 29.42in /  996.2hPa NNW 0.2mph /  0.3km/h 5mph /  8km/h 97% 0.04in /  1.02mm 9 W/m2
16:49 59.8 °F /  15.4 °C 59 °F /  15 °C 29.42in /  996.2hPa NE 0.3mph /  0.5km/h 5mph /  8km/h 97% 0.04in /  1.02mm 7 W/m2
16:54 59.6 °F /  15.3 °C 58.8 °F /  14.9 °C 29.42in /  996.2hPa ENE 0.6mph /  1km/h 6mph /  9.7km/h 97% 0.04in /  1.02mm 5 W/m2
16:59 59.4 °F /  15.2 °C 58.5 °F /  14.7 °C 29.42in /  996.2hPa ENE 0.4mph /  0.6km/h 6mph /  9.7km/h 97% 0.04in /  1.02mm 5 W/m2
17:04 59.2 °F /  15.1 °C 58.4 °F /  14.7 °C 29.42in /  996.2hPa Calm     97% 0.01in /  0.25mm 7 W/m2
17:09 59.1 °F /  15.1 °C 58.3 °F /  14.6 °C 29.42in /  996.2hPa North 0.2mph /  0.3km/h 4mph /  6.4km/h 97% 0.02in /  0.51mm 7 W/m2
17:14 59.1 °F /  15.1 °C 58.2 °F /  14.6 °C 29.42in /  996.2hPa Calm   4mph /  6.4km/h 97% 0.02in /  0.51mm 9 W/m2
17:19 59 °F /  15 °C 58.1 °F /  14.5 °C 29.43in /  996.5hPa NNE 0.1mph /  0.2km/h 4mph /  6.4km/h 97% 0.03in /  0.76mm 9 W/m2
17:24 58.9 °F /  14.9 °C 58.1 °F /  14.5 °C 29.43in /  996.5hPa Calm   4mph /  6.4km/h 97% 0.04in /  1.02mm 5 W/m2
17:29 58.8 °F /  14.9 °C 58 °F /  14.4 °C 29.43in /  996.5hPa NE 0.1mph /  0.2km/h 4mph /  6.4km/h 97% 0.04in /  1.02mm 0 W/m2
17:34 58.7 °F /  14.8 °C 57.9 °F /  14.4 °C 29.43in /  996.5hPa North 1.2mph /  1.9km/h 7mph /  11.3km/h 97% 0.05in /  1.27mm 0 W/m2
17:39 58.6 °F /  14.8 °C 57.8 °F /  14.3 °C 29.43in /  996.5hPa NNW 0.3mph /  0.5km/h 7mph /  11.3km/h 97% 0.06in /  1.52mm 0 W/m2
17:44 58.5 °F /  14.7 °C 57.6 °F /  14.2 °C 29.43in /  996.5hPa NNE 0.1mph /  0.2km/h 7mph /  11.3km/h 97% 0.06in /  1.52mm 0 W/m2
17:49 58.2 °F /  14.6 °C 57.4 °F /  14.1 °C 29.43in /  996.5hPa NE 0.4mph /  0.6km/h 7mph /  11.3km/h 97% 0.06in /  1.52mm 0 W/m2
17:54 57.9 °F /  14.4 °C 57.1 °F /  13.9 °C 29.44in /  996.8hPa East 0.4mph /  0.6km/h 7mph /  11.3km/h 97% 0.06in /  1.52mm 0 W/m2
17:59 57.7 °F /  14.3 °C 56.8 °F /  13.8 °C 29.44in /  996.8hPa North 0.6mph /  1km/h 9mph /  14.5km/h 97% 0.07in /  1.78mm 0 W/m2
18:04 57.4 °F /  14.1 °C 56.6 °F /  13.7 °C 29.44in /  996.8hPa North 0.8mph /  1.3km/h 9mph /  14.5km/h 97% 0.07in /  1.78mm 0 W/m2
18:09 57.2 °F /  14 °C 56.3 °F /  13.5 °C 29.44in /  996.8hPa North 1.9mph /  3.1km/h 10mph /  16.1km/h 97% 0.07in /  1.78mm 0 W/m2
18:14 56.8 °F /  13.8 °C 56 °F /  13.3 °C 29.44in /  996.8hPa NNW 1.5mph /  2.4km/h 13mph /  20.9km/h 97% 0.07in /  1.78mm 0 W/m2
18:19 56.6 °F /  13.7 °C 55.8 °F /  13.2 °C 29.44in /  996.8hPa NNW 1.1mph /  1.8km/h 13mph /  20.9km/h 97% 0.07in /  1.78mm 0 W/m2
18:24 56.4 °F /  13.6 °C 55.6 °F /  13.1 °C 29.44in /  996.8hPa North 0.5mph /  0.8km/h 13mph /  20.9km/h 97% 0.07in /  1.78mm 0 W/m2
18:29 56.2 °F /  13.4 °C 55.4 °F /  13 °C 29.44in /  996.8hPa NNW 0.6mph /  1km/h 13mph /  20.9km/h 97% 0.07in /  1.78mm 0 W/m2
18:34 56.1 °F /  13.4 °C 55.3 °F /  12.9 °C 29.45in /  997.2hPa NNW 1.6mph /  2.6km/h 13mph /  20.9km/h 97% 0.07in /  1.78mm 0 W/m2
18:39 56 °F /  13.3 °C 55.2 °F /  12.9 °C 29.45in /  997.2hPa NE 0.3mph /  0.5km/h 12mph /  19.3km/h 97% 0.04in /  1.02mm 0 W/m2
18:44 55.9 °F /  13.3 °C 55 °F /  12.8 °C 29.45in /  997.2hPa NNW 0.9mph /  1.4km/h 12mph /  19.3km/h 97% 0.04in /  1.02mm 0 W/m2
18:49 55.8 °F /  13.2 °C 55 °F /  12.8 °C 29.45in /  997.2hPa NNW 0.7mph /  1.1km/h 12mph /  19.3km/h 97% 0.05in /  1.27mm 0 W/m2
18:54 55.7 °F /  13.2 °C 54.9 °F /  12.7 °C 29.45in /  997.2hPa North 1mph /  1.6km/h 12mph /  19.3km/h 97% 0.05in /  1.27mm 0 W/m2
18:59 55.7 °F /  13.2 °C 54.9 °F /  12.7 °C 29.45in /  997.2hPa West 0.3mph /  0.5km/h 12mph /  19.3km/h 97% 0.05in /  1.27mm 0 W/m2
19:04 55.7 °F /  13.2 °C 54.8 °F /  12.7 °C 29.45in /  997.2hPa NNE 1.2mph /  1.9km/h 12mph /  19.3km/h 97% 0.05in /  1.27mm 0 W/m2
19:09 55.6 °F /  13.1 °C 54.8 °F /  12.7 °C 29.45in /  997.2hPa ENE 0.5mph /  0.8km/h 12mph /  19.3km/h 97% 0.02in /  0.51mm 0 W/m2
19:14 55.6 °F /  13.1 °C 54.7 °F /  12.6 °C 29.45in /  997.2hPa SW 0.4mph /  0.6km/h 12mph /  19.3km/h 97% 0.02in /  0.51mm 0 W/m2
19:19 55.6 °F /  13.1 °C 54.7 °F /  12.6 °C 29.45in /  997.2hPa NE 0.8mph /  1.3km/h 12mph /  19.3km/h 97% 0.02in /  0.51mm 0 W/m2
19:24 55.5 °F /  13.1 °C 54.7 °F /  12.6 °C 29.45in /  997.2hPa NE 0.6mph /  1km/h 12mph /  19.3km/h 97% 0.02in /  0.51mm 0 W/m2
19:29 55.4 °F /  13 °C 54.6 °F /  12.6 °C 29.46in /  997.5hPa NNW 0.7mph /  1.1km/h 12mph /  19.3km/h 97% 0.02in /  0.51mm 0 W/m2
19:34 55.3 °F /  12.9 °C 54.5 °F /  12.5 °C 29.46in /  997.5hPa NW 0.3mph /  0.5km/h 12mph /  19.3km/h 97% 0.02in /  0.51mm 0 W/m2
19:39 55.3 °F /  12.9 °C 54.4 °F /  12.4 °C 29.46in /  997.5hPa ENE 0.5mph /  0.8km/h 7mph /  11.3km/h 97% 0.02in /  0.51mm 0 W/m2
19:44 55.1 °F /  12.8 °C 54.3 °F /  12.4 °C 29.46in /  997.5hPa NNE 0.9mph /  1.4km/h 12mph /  19.3km/h 97% 0.02in /  0.51mm 0 W/m2
19:49 55.1 °F /  12.8 °C 54.2 °F /  12.3 °C 29.46in /  997.5hPa NNE 0.7mph /  1.1km/h 12mph /  19.3km/h 97% 0.02in /  0.51mm 0 W/m2
19:53 55 °F /  12.8 °C 54.2 °F /  12.3 °C 29.46in /  997.5hPa NW 1.3mph /  2.1km/h 16mph /  25.7km/h 97% 0.02in /  0.51mm 0 W/m2
Hartford County Weather
Compliments of Weather Underground - 2 mb